Helena, New York
Current Conditions -  °F | °C
As of 11:53 AM on Friday 24 Oct 2014 (Local Time) from KMSS Reporting Station
NA  
Wind Chill: 51°   Ceiling: NA
Heat Index: 51°   Visibility: NA
Dew Point: 43°   Wind: 0mph
Humidity: 74%   Direction: NA
Pressure: 29.92"   Gusts: NA
Location:  44.92°N, 74.73°W
Report Text: KMSS 241553Z AUTO 00000KT 11/06 A2992 RMK AO2 SLP134 T01060061
Loading
Personal Weather Stations






























Interactive Weather Map
Tropical Storm Tracking
New forecast layout! Learn more

10-Day Weather Forecast

Advertisements
Track Severe Weather on mobile